sensor_id;sensor_type;location;lat;lon;timestamp;temperature;humidity
49679;DHT22;35570;48.218;16.326;2023-04-16T00:01:30;6.70;99.90
49679;DHT22;35570;48.218;16.326;2023-04-16T00:03:56;6.70;99.90
49679;DHT22;35570;48.218;16.326;2023-04-16T00:06:22;6.80;99.90
49679;DHT22;35570;48.218;16.326;2023-04-16T00:08:47;6.80;99.90
49679;DHT22;35570;48.218;16.326;2023-04-16T00:11:14;6.80;99.90
49679;DHT22;35570;48.218;16.326;2023-04-16T00:13:39;6.90;99.90
49679;DHT22;35570;48.218;16.326;2023-04-16T00:16:06;6.90;99.90
49679;DHT22;35570;48.218;16.326;2023-04-16T00:18:31;6.90;99.90
49679;DHT22;35570;48.218;16.326;2023-04-16T00:20:57;6.90;99.90
49679;DHT22;35570;48.218;16.326;2023-04-16T00:23:24;6.90;99.90
49679;DHT22;35570;48.218;16.326;2023-04-16T00:25:50;6.90;99.90
49679;DHT22;35570;48.218;16.326;2023-04-16T00:28:15;6.90;99.90
49679;DHT22;35570;48.218;16.326;2023-04-16T00:30:41;6.90;99.90
49679;DHT22;35570;48.218;16.326;2023-04-16T00:33:06;6.90;99.90
49679;DHT22;35570;48.218;16.326;2023-04-16T00:35:33;6.90;99.90
49679;DHT22;35570;48.218;16.326;2023-04-16T00:37:59;6.90;99.90
49679;DHT22;35570;48.218;16.326;2023-04-16T00:40:28;6.90;99.90
49679;DHT22;35570;48.218;16.326;2023-04-16T00:42:54;6.90;99.90
49679;DHT22;35570;48.218;16.326;2023-04-16T00:45:20;6.90;99.90
49679;DHT22;35570;48.218;16.326;2023-04-16T00:47:45;6.90;99.90
49679;DHT22;35570;48.218;16.326;2023-04-16T00:50:11;6.80;99.90
49679;DHT22;35570;48.218;16.326;2023-04-16T00:52:37;6.80;99.90
49679;DHT22;35570;48.218;16.326;2023-04-16T00:55:06;6.80;99.90
49679;DHT22;35570;48.218;16.326;2023-04-16T00:57:31;6.70;99.90
49679;DHT22;35570;48.218;16.326;2023-04-16T00:59:57;6.60;99.90
49679;DHT22;35570;48.218;16.326;2023-04-16T01:02:23;6.60;99.90
49679;DHT22;35570;48.218;16.326;2023-04-16T01:04:50;6.60;99.90
49679;DHT22;35570;48.218;16.326;2023-04-16T01:07:16;6.50;99.90
49679;DHT22;35570;48.218;16.326;2023-04-16T01:09:41;6.50;99.90
49679;DHT22;35570;48.218;16.326;2023-04-16T01:12:07;6.50;99.90
49679;DHT22;35570;48.218;16.326;2023-04-16T01:14:33;6.40;99.90
49679;DHT22;35570;48.218;16.326;2023-04-16T01:17:01;6.40;99.90
49679;DHT22;35570;48.218;16.326;2023-04-16T01:19:28;6.40;99.90
49679;DHT22;35570;48.218;16.326;2023-04-16T01:21:56;6.40;99.90
49679;DHT22;35570;48.218;16.326;2023-04-16T01:24:21;6.30;99.90
49679;DHT22;35570;48.218;16.326;2023-04-16T01:26:47;6.30;99.90
49679;DHT22;35570;48.218;16.326;2023-04-16T01:29:13;6.30;99.90
49679;DHT22;35570;48.218;16.326;2023-04-16T01:31:38;6.40;99.90
49679;DHT22;35570;48.218;16.326;2023-04-16T01:34:04;6.40;99.90
49679;DHT22;35570;48.218;16.326;2023-04-16T01:36:29;6.40;99.90
49679;DHT22;35570;48.218;16.326;2023-04-16T01:38:55;6.30;99.90
49679;DHT22;35570;48.218;16.326;2023-04-16T01:41:21;6.30;99.90
49679;DHT22;35570;48.218;16.326;2023-04-16T01:43:46;6.20;99.90
49679;DHT22;35570;48.218;16.326;2023-04-16T01:46:13;6.20;99.90
49679;DHT22;35570;48.218;16.326;2023-04-16T01:48:40;6.20;99.90
49679;DHT22;35570;48.218;16.326;2023-04-16T01:51:06;6.20;99.90
49679;DHT22;35570;48.218;16.326;2023-04-16T01:53:32;6.30;99.90
49679;DHT22;35570;48.218;16.326;2023-04-16T01:55:58;6.30;99.90
49679;DHT22;35570;48.218;16.326;2023-04-16T01:58:23;6.40;99.90
49679;DHT22;35570;48.218;16.326;2023-04-16T02:00:49;6.40;99.90
49679;DHT22;35570;48.218;16.326;2023-04-16T02:03:15;6.40;99.90
49679;DHT22;35570;48.218;16.326;2023-04-16T02:05:41;6.40;99.90
49679;DHT22;35570;48.218;16.326;2023-04-16T02:08:07;6.40;99.90
49679;DHT22;35570;48.218;16.326;2023-04-16T02:10:33;6.30;99.90
49679;DHT22;35570;48.218;16.326;2023-04-16T02:12:58;6.30;99.90
49679;DHT22;35570;48.218;16.326;2023-04-16T02:15:24;6.30;99.90
49679;DHT22;35570;48.218;16.326;2023-04-16T02:17:50;6.20;99.90
49679;DHT22;35570;48.218;16.326;2023-04-16T02:20:21;6.20;99.90
49679;DHT22;35570;48.218;16.326;2023-04-16T02:22:46;6.20;99.90
49679;DHT22;35570;48.218;16.326;2023-04-16T02:25:12;6.30;99.90
49679;DHT22;35570;48.218;16.326;2023-04-16T02:27:41;6.30;99.90
49679;DHT22;35570;48.218;16.326;2023-04-16T02:30:07;6.20;99.90
49679;DHT22;35570;48.218;16.326;2023-04-16T02:32:32;6.20;99.90
49679;DHT22;35570;48.218;16.326;2023-04-16T02:34:58;6.10;99.90
49679;DHT22;35570;48.218;16.326;2023-04-16T02:37:24;6.10;99.90
49679;DHT22;35570;48.218;16.326;2023-04-16T02:39:50;6.10;99.90
49679;DHT22;35570;48.218;16.326;2023-04-16T02:42:16;6.20;99.90
49679;DHT22;35570;48.218;16.326;2023-04-16T02:44:42;6.30;99.90
49679;DHT22;35570;48.218;16.326;2023-04-16T02:47:07;6.30;99.90
49679;DHT22;35570;48.218;16.326;2023-04-16T02:49:33;6.40;99.90
49679;DHT22;35570;48.218;16.326;2023-04-16T02:52:00;6.40;99.90
49679;DHT22;35570;48.218;16.326;2023-04-16T02:54:25;6.40;99.90
49679;DHT22;35570;48.218;16.326;2023-04-16T02:56:51;6.50;99.90
49679;DHT22;35570;48.218;16.326;2023-04-16T02:59:17;6.50;99.90
49679;DHT22;35570;48.218;16.326;2023-04-16T03:01:42;6.50;99.90
49679;DHT22;35570;48.218;16.326;2023-04-16T03:04:08;6.50;99.90
49679;DHT22;35570;48.218;16.326;2023-04-16T03:06:33;6.40;99.90
49679;DHT22;35570;48.218;16.326;2023-04-16T03:08:59;6.50;99.90
49679;DHT22;35570;48.218;16.326;2023-04-16T03:11:25;6.40;99.90
49679;DHT22;35570;48.218;16.326;2023-04-16T03:13:50;6.40;99.90
49679;DHT22;35570;48.218;16.326;2023-04-16T03:16:16;6.40;99.90
49679;DHT22;35570;48.218;16.326;2023-04-16T03:18:42;6.40;99.90
49679;DHT22;35570;48.218;16.326;2023-04-16T03:21:07;6.30;99.90
49679;DHT22;35570;48.218;16.326;2023-04-16T03:23:33;6.30;99.90
49679;DHT22;35570;48.218;16.326;2023-04-16T03:26:00;6.30;99.90
49679;DHT22;35570;48.218;16.326;2023-04-16T03:28:25;6.30;99.90
49679;DHT22;35570;48.218;16.326;2023-04-16T03:30:52;6.30;99.90
49679;DHT22;35570;48.218;16.326;2023-04-16T03:33:19;6.30;99.90
49679;DHT22;35570;48.218;16.326;2023-04-16T03:35:45;6.40;99.90
49679;DHT22;35570;48.218;16.326;2023-04-16T03:38:10;6.40;99.90
49679;DHT22;35570;48.218;16.326;2023-04-16T03:40:37;6.50;99.90
49679;DHT22;35570;48.218;16.326;2023-04-16T03:43:03;6.50;99.90
49679;DHT22;35570;48.218;16.326;2023-04-16T03:45:28;6.50;99.90
49679;DHT22;35570;48.218;16.326;2023-04-16T03:47:54;6.60;99.90
49679;DHT22;35570;48.218;16.326;2023-04-16T03:50:20;6.60;99.90
49679;DHT22;35570;48.218;16.326;2023-04-16T03:52:46;6.60;99.90
49679;DHT22;35570;48.218;16.326;2023-04-16T03:55:13;6.60;99.90
49679;DHT22;35570;48.218;16.326;2023-04-16T03:57:39;6.60;99.90
49679;DHT22;35570;48.218;16.326;2023-04-16T04:00:06;6.60;99.90
49679;DHT22;35570;48.218;16.326;2023-04-16T04:02:32;6.70;99.90
49679;DHT22;35570;48.218;16.326;2023-04-16T04:04:57;6.70;99.90
49679;DHT22;35570;48.218;16.326;2023-04-16T04:07:23;6.70;99.90
49679;DHT22;35570;48.218;16.326;2023-04-16T04:09:49;6.70;99.90
49679;DHT22;35570;48.218;16.326;2023-04-16T04:12:14;6.80;99.90
49679;DHT22;35570;48.218;16.326;2023-04-16T04:14:40;6.70;99.90
49679;DHT22;35570;48.218;16.326;2023-04-16T04:17:06;6.80;99.90
49679;DHT22;35570;48.218;16.326;2023-04-16T04:19:32;6.80;99.90
49679;DHT22;35570;48.218;16.326;2023-04-16T04:21:58;6.80;99.90
49679;DHT22;35570;48.218;16.326;2023-04-16T04:24:24;6.90;99.90
49679;DHT22;35570;48.218;16.326;2023-04-16T04:26:50;6.90;99.90
49679;DHT22;35570;48.218;16.326;2023-04-16T04:29:16;6.90;99.90
49679;DHT22;35570;48.218;16.326;2023-04-16T04:31:41;6.90;99.90
49679;DHT22;35570;48.218;16.326;2023-04-16T04:34:07;6.90;99.90
49679;DHT22;35570;48.218;16.326;2023-04-16T04:36:33;6.90;99.90
49679;DHT22;35570;48.218;16.326;2023-04-16T04:38:58;6.90;99.90
49679;DHT22;35570;48.218;16.326;2023-04-16T04:41:24;7.00;99.90
49679;DHT22;35570;48.218;16.326;2023-04-16T04:43:51;7.00;99.90
49679;DHT22;35570;48.218;16.326;2023-04-16T04:46:16;7.00;99.90
49679;DHT22;35570;48.218;16.326;2023-04-16T04:48:42;7.00;99.90
49679;DHT22;35570;48.218;16.326;2023-04-16T04:51:08;7.10;99.90
49679;DHT22;35570;48.218;16.326;2023-04-16T04:53:33;7.10;99.90
49679;DHT22;35570;48.218;16.326;2023-04-16T04:55:59;7.10;99.90
49679;DHT22;35570;48.218;16.326;2023-04-16T04:58:25;7.10;99.90
49679;DHT22;35570;48.218;16.326;2023-04-16T05:00:50;7.10;99.90
49679;DHT22;35570;48.218;16.326;2023-04-16T05:03:19;7.10;99.90
49679;DHT22;35570;48.218;16.326;2023-04-16T05:05:45;7.10;99.90
49679;DHT22;35570;48.218;16.326;2023-04-16T05:08:11;7.10;99.90
49679;DHT22;35570;48.218;16.326;2023-04-16T05:10:37;7.10;99.90
49679;DHT22;35570;48.218;16.326;2023-04-16T05:13:02;7.20;99.90
49679;DHT22;35570;48.218;16.326;2023-04-16T05:15:28;7.20;99.90
49679;DHT22;35570;48.218;16.326;2023-04-16T05:17:54;7.20;99.90
49679;DHT22;35570;48.218;16.326;2023-04-16T05:20:21;7.20;99.90
49679;DHT22;35570;48.218;16.326;2023-04-16T05:22:49;7.20;99.90
49679;DHT22;35570;48.218;16.326;2023-04-16T05:25:14;7.20;99.90
49679;DHT22;35570;48.218;16.326;2023-04-16T05:27:41;7.30;99.90
49679;DHT22;35570;48.218;16.326;2023-04-16T05:30:08;7.30;99.90
49679;DHT22;35570;48.218;16.326;2023-04-16T05:32:33;7.30;99.90
49679;DHT22;35570;48.218;16.326;2023-04-16T05:34:59;7.30;99.90
49679;DHT22;35570;48.218;16.326;2023-04-16T05:37:25;7.40;99.90
49679;DHT22;35570;48.218;16.326;2023-04-16T05:39:50;7.40;99.90
49679;DHT22;35570;48.218;16.326;2023-04-16T05:42:16;7.50;99.90
49679;DHT22;35570;48.218;16.326;2023-04-16T05:44:41;7.60;99.90
49679;DHT22;35570;48.218;16.326;2023-04-16T05:47:07;7.60;99.90
49679;DHT22;35570;48.218;16.326;2023-04-16T05:49:34;7.70;99.90
49679;DHT22;35570;48.218;16.326;2023-04-16T05:52:02;7.70;99.90
49679;DHT22;35570;48.218;16.326;2023-04-16T05:54:28;7.80;99.90
49679;DHT22;35570;48.218;16.326;2023-04-16T05:56:53;7.80;99.90
49679;DHT22;35570;48.218;16.326;2023-04-16T05:59:19;7.90;99.90
49679;DHT22;35570;48.218;16.326;2023-04-16T06:01:44;7.90;99.90
49679;DHT22;35570;48.218;16.326;2023-04-16T06:04:10;8.00;99.90
49679;DHT22;35570;48.218;16.326;2023-04-16T06:06:36;8.00;99.90
49679;DHT22;35570;48.218;16.326;2023-04-16T06:09:02;8.10;99.90
49679;DHT22;35570;48.218;16.326;2023-04-16T06:11:31;8.10;99.90
49679;DHT22;35570;48.218;16.326;2023-04-16T06:13:56;8.20;99.90
49679;DHT22;35570;48.218;16.326;2023-04-16T06:16:22;8.30;99.90
49679;DHT22;35570;48.218;16.326;2023-04-16T06:18:48;8.30;99.90
49679;DHT22;35570;48.218;16.326;2023-04-16T06:21:13;8.40;99.90
49679;DHT22;35570;48.218;16.326;2023-04-16T06:23:40;8.50;99.90
49679;DHT22;35570;48.218;16.326;2023-04-16T06:26:05;8.50;99.90
49679;DHT22;35570;48.218;16.326;2023-04-16T06:28:31;8.60;99.90
49679;DHT22;35570;48.218;16.326;2023-04-16T06:30:57;8.70;99.90
49679;DHT22;35570;48.218;16.326;2023-04-16T06:33:23;8.80;99.90
49679;DHT22;35570;48.218;16.326;2023-04-16T06:35:49;8.90;99.90
49679;DHT22;35570;48.218;16.326;2023-04-16T06:38:15;9.10;99.90
49679;DHT22;35570;48.218;16.326;2023-04-16T06:40:40;9.20;99.90
49679;DHT22;35570;48.218;16.326;2023-04-16T06:43:06;9.30;99.90
49679;DHT22;35570;48.218;16.326;2023-04-16T06:45:31;9.40;99.90
49679;DHT22;35570;48.218;16.326;2023-04-16T06:47:57;9.50;99.90
49679;DHT22;35570;48.218;16.326;2023-04-16T06:50:24;9.60;99.90
49679;DHT22;35570;48.218;16.326;2023-04-16T06:52:51;9.60;99.90
49679;DHT22;35570;48.218;16.326;2023-04-16T06:55:17;9.60;99.90
49679;DHT22;35570;48.218;16.326;2023-04-16T06:57:42;9.70;99.90
49679;DHT22;35570;48.218;16.326;2023-04-16T07:00:08;9.80;99.90
49679;DHT22;35570;48.218;16.326;2023-04-16T07:02:34;9.80;99.90
49679;DHT22;35570;48.218;16.326;2023-04-16T07:05:00;9.80;99.90
49679;DHT22;35570;48.218;16.326;2023-04-16T07:07:25;9.90;99.90
49679;DHT22;35570;48.218;16.326;2023-04-16T07:09:51;9.90;99.80
49679;DHT22;35570;48.218;16.326;2023-04-16T07:12:17;9.90;99.90
49679;DHT22;35570;48.218;16.326;2023-04-16T07:14:42;10.00;99.90
49679;DHT22;35570;48.218;16.326;2023-04-16T07:17:08;10.10;99.90
49679;DHT22;35570;48.218;16.326;2023-04-16T07:19:34;10.30;98.70
49679;DHT22;35570;48.218;16.326;2023-04-16T07:22:00;10.30;98.10
49679;DHT22;35570;48.218;16.326;2023-04-16T07:24:26;10.40;99.00
49679;DHT22;35570;48.218;16.326;2023-04-16T07:26:51;10.50;99.30
49679;DHT22;35570;48.218;16.326;2023-04-16T07:29:17;10.50;97.30
49679;DHT22;35570;48.218;16.326;2023-04-16T07:31:43;10.70;98.90
49679;DHT22;35570;48.218;16.326;2023-04-16T07:34:09;10.90;98.20
49679;DHT22;35570;48.218;16.326;2023-04-16T07:36:34;11.10;97.30
49679;DHT22;35570;48.218;16.326;2023-04-16T07:39:00;11.20;95.80
49679;DHT22;35570;48.218;16.326;2023-04-16T07:41:27;11.30;96.70
49679;DHT22;35570;48.218;16.326;2023-04-16T07:43:54;11.40;95.70
49679;DHT22;35570;48.218;16.326;2023-04-16T07:46:19;11.40;95.20
49679;DHT22;35570;48.218;16.326;2023-04-16T07:48:46;11.50;95.60
49679;DHT22;35570;48.218;16.326;2023-04-16T07:51:12;11.60;93.30
49679;DHT22;35570;48.218;16.326;2023-04-16T07:53:37;11.60;93.90
49679;DHT22;35570;48.218;16.326;2023-04-16T07:56:03;11.70;91.90
49679;DHT22;35570;48.218;16.326;2023-04-16T07:58:29;11.70;93.10
49679;DHT22;35570;48.218;16.326;2023-04-16T08:00:54;11.70;94.20
49679;DHT22;35570;48.218;16.326;2023-04-16T08:03:20;11.70;92.50
49679;DHT22;35570;48.218;16.326;2023-04-16T08:05:46;11.70;91.30
49679;DHT22;35570;48.218;16.326;2023-04-16T08:08:12;11.70;90.80
49679;DHT22;35570;48.218;16.326;2023-04-16T08:10:38;11.70;89.30
49679;DHT22;35570;48.218;16.326;2023-04-16T08:13:04;11.60;84.80
49679;DHT22;35570;48.218;16.326;2023-04-16T08:15:29;11.50;86.80
49679;DHT22;35570;48.218;16.326;2023-04-16T08:17:55;11.30;86.00
49679;DHT22;35570;48.218;16.326;2023-04-16T08:20:21;11.30;88.60
49679;DHT22;35570;48.218;16.326;2023-04-16T08:22:47;11.20;87.50
49679;DHT22;35570;48.218;16.326;2023-04-16T08:25:13;11.40;92.00
49679;DHT22;35570;48.218;16.326;2023-04-16T08:27:39;11.40;91.60
49679;DHT22;35570;48.218;16.326;2023-04-16T08:30:06;11.50;91.60
49679;DHT22;35570;48.218;16.326;2023-04-16T08:32:32;11.50;88.30
49679;DHT22;35570;48.218;16.326;2023-04-16T08:34:57;11.50;90.00
49679;DHT22;35570;48.218;16.326;2023-04-16T08:37:24;11.40;88.60
49679;DHT22;35570;48.218;16.326;2023-04-16T08:39:50;11.30;88.50
49679;DHT22;35570;48.218;16.326;2023-04-16T08:42:31;11.20;90.50
49679;DHT22;35570;48.218;16.326;2023-04-16T08:45:12;11.20;90.30
49679;DHT22;35570;48.218;16.326;2023-04-16T08:47:38;11.20;90.10
49679;DHT22;35570;48.218;16.326;2023-04-16T08:50:04;11.20;89.60
49679;DHT22;35570;48.218;16.326;2023-04-16T08:52:30;11.20;90.00
49679;DHT22;35570;48.218;16.326;2023-04-16T08:55:03;11.30;86.00
49679;DHT22;35570;48.218;16.326;2023-04-16T08:57:38;11.40;87.00
49679;DHT22;35570;48.218;16.326;2023-04-16T09:00:06;11.50;87.10
49679;DHT22;35570;48.218;16.326;2023-04-16T09:02:33;11.60;86.80
49679;DHT22;35570;48.218;16.326;2023-04-16T09:04:59;11.80;85.80
49679;DHT22;35570;48.218;16.326;2023-04-16T09:07:27;11.90;83.40
49679;DHT22;35570;48.218;16.326;2023-04-16T09:09:53;11.90;81.20
49679;DHT22;35570;48.218;16.326;2023-04-16T09:12:22;12.10;87.40
49679;DHT22;35570;48.218;16.326;2023-04-16T09:14:51;12.30;85.50
49679;DHT22;35570;48.218;16.326;2023-04-16T09:17:17;12.50;82.60
49679;DHT22;35570;48.218;16.326;2023-04-16T09:19:44;12.70;82.90
49679;DHT22;35570;48.218;16.326;2023-04-16T09:22:10;12.90;80.60
49679;DHT22;35570;48.218;16.326;2023-04-16T09:24:36;12.90;79.30
49679;DHT22;35570;48.218;16.326;2023-04-16T09:27:03;12.80;77.40
49679;DHT22;35570;48.218;16.326;2023-04-16T09:29:37;12.80;80.60
49679;DHT22;35570;48.218;16.326;2023-04-16T09:32:11;12.70;79.10
49679;DHT22;35570;48.218;16.326;2023-04-16T09:35:00;12.50;79.40
49679;DHT22;35570;48.218;16.326;2023-04-16T09:37:28;12.40;79.50
49679;DHT22;35570;48.218;16.326;2023-04-16T09:42:25;12.20;81.40
49679;DHT22;35570;48.218;16.326;2023-04-16T09:44:52;12.10;79.30
49679;DHT22;35570;48.218;16.326;2023-04-16T09:47:18;11.90;81.70
49679;DHT22;35570;48.218;16.326;2023-04-16T09:49:44;11.80;82.10
49679;DHT22;35570;48.218;16.326;2023-04-16T09:52:21;11.70;81.60
49679;DHT22;35570;48.218;16.326;2023-04-16T09:54:51;11.70;83.40
49679;DHT22;35570;48.218;16.326;2023-04-16T09:57:21;11.80;84.10
49679;DHT22;35570;48.218;16.326;2023-04-16T10:00:08;11.90;80.80
49679;DHT22;35570;48.218;16.326;2023-04-16T10:02:35;11.90;80.20
49679;DHT22;35570;48.218;16.326;2023-04-16T10:05:03;12.00;82.40
49679;DHT22;35570;48.218;16.326;2023-04-16T10:07:33;12.30;81.60
49679;DHT22;35570;48.218;16.326;2023-04-16T10:09:59;12.30;76.10
49679;DHT22;35570;48.218;16.326;2023-04-16T10:12:25;12.40;77.40
49679;DHT22;35570;48.218;16.326;2023-04-16T10:14:55;12.50;75.40
49679;DHT22;35570;48.218;16.326;2023-04-16T10:17:20;12.50;73.30
49679;DHT22;35570;48.218;16.326;2023-04-16T10:19:46;12.60;75.70
49679;DHT22;35570;48.218;16.326;2023-04-16T10:22:12;12.90;77.20
49679;DHT22;35570;48.218;16.326;2023-04-16T10:24:40;13.20;73.70
49679;DHT22;35570;48.218;16.326;2023-04-16T10:27:06;13.30;73.30
49679;DHT22;35570;48.218;16.326;2023-04-16T10:29:32;13.50;72.00
49679;DHT22;35570;48.218;16.326;2023-04-16T10:31:59;13.60;70.50
49679;DHT22;35570;48.218;16.326;2023-04-16T10:34:26;13.70;74.60
49679;DHT22;35570;48.218;16.326;2023-04-16T10:36:53;14.10;76.40
49679;DHT22;35570;48.218;16.326;2023-04-16T10:39:21;14.60;72.50
49679;DHT22;35570;48.218;16.326;2023-04-16T10:41:48;14.80;70.70
49679;DHT22;35570;48.218;16.326;2023-04-16T10:44:17;14.80;70.10
49679;DHT22;35570;48.218;16.326;2023-04-16T10:46:47;14.80;68.60
49679;DHT22;35570;48.218;16.326;2023-04-16T10:49:22;14.60;65.20
49679;DHT22;35570;48.218;16.326;2023-04-16T10:51:56;14.40;65.60
49679;DHT22;35570;48.218;16.326;2023-04-16T10:54:26;14.20;66.30
49679;DHT22;35570;48.218;16.326;2023-04-16T10:56:54;14.20;67.80
49679;DHT22;35570;48.218;16.326;2023-04-16T10:59:21;14.30;68.90
49679;DHT22;35570;48.218;16.326;2023-04-16T11:01:55;14.40;67.60
49679;DHT22;35570;48.218;16.326;2023-04-16T11:12:36;16.10;62.80
49679;DHT22;35570;48.218;16.326;2023-04-16T11:15:12;16.50;64.60
49679;DHT22;35570;48.218;16.326;2023-04-16T11:20:15;16.60;60.80
49679;DHT22;35570;48.218;16.326;2023-04-16T11:22:41;17.80;61.70
49679;DHT22;35570;48.218;16.326;2023-04-16T11:25:08;19.40;56.80
49679;DHT22;35570;48.218;16.326;2023-04-16T11:27:33;19.80;49.60
49679;DHT22;35570;48.218;16.326;2023-04-16T11:30:01;19.20;49.50
49679;DHT22;35570;48.218;16.326;2023-04-16T11:32:31;19.30;55.50
49679;DHT22;35570;48.218;16.326;2023-04-16T11:37:35;22.50;51.50
49679;DHT22;35570;48.218;16.326;2023-04-16T11:40:02;22.80;46.50
49679;DHT22;35570;48.218;16.326;2023-04-16T11:42:33;21.80;48.70
49679;DHT22;35570;48.218;16.326;2023-04-16T11:45:02;20.90;49.60
49679;DHT22;35570;48.218;16.326;2023-04-16T11:47:31;20.10;53.30
49679;DHT22;35570;48.218;16.326;2023-04-16T11:49:57;19.40;50.90
49679;DHT22;35570;48.218;16.326;2023-04-16T11:52:32;18.70;51.90
49679;DHT22;35570;48.218;16.326;2023-04-16T11:54:58;18.10;54.00
49679;DHT22;35570;48.218;16.326;2023-04-16T11:57:26;17.80;55.30
49679;DHT22;35570;48.218;16.326;2023-04-16T11:59:52;17.40;54.20
49679;DHT22;35570;48.218;16.326;2023-04-16T12:02:33;17.00;57.30
49679;DHT22;35570;48.218;16.326;2023-04-16T12:04:59;17.00;58.50
49679;DHT22;35570;48.218;16.326;2023-04-16T12:07:24;17.40;59.30
49679;DHT22;35570;48.218;16.326;2023-04-16T12:09:50;18.50;60.20
49679;DHT22;35570;48.218;16.326;2023-04-16T12:12:30;20.10;52.50
49679;DHT22;35570;48.218;16.326;2023-04-16T12:14:56;20.70;49.80
49679;DHT22;35570;48.218;16.326;2023-04-16T12:17:24;20.40;48.40
49679;DHT22;35570;48.218;16.326;2023-04-16T12:19:51;19.90;49.80
49679;DHT22;35570;48.218;16.326;2023-04-16T12:22:31;19.30;49.10
49679;DHT22;35570;48.218;16.326;2023-04-16T12:25:03;19.00;53.70
49679;DHT22;35570;48.218;16.326;2023-04-16T12:27:46;18.80;51.00
49679;DHT22;35570;48.218;16.326;2023-04-16T12:30:13;18.30;52.10
49679;DHT22;35570;48.218;16.326;2023-04-16T12:32:41;18.00;54.20
49679;DHT22;35570;48.218;16.326;2023-04-16T12:35:10;17.70;54.10
49679;DHT22;35570;48.218;16.326;2023-04-16T12:37:37;17.50;53.90
49679;DHT22;35570;48.218;16.326;2023-04-16T12:40:03;17.30;56.40
49679;DHT22;35570;48.218;16.326;2023-04-16T12:42:30;17.50;57.40
49679;DHT22;35570;48.218;16.326;2023-04-16T12:45:01;18.00;54.00
49679;DHT22;35570;48.218;16.326;2023-04-16T12:47:28;18.50;55.40
49679;DHT22;35570;48.218;16.326;2023-04-16T12:49:55;19.00;51.80
49679;DHT22;35570;48.218;16.326;2023-04-16T12:52:22;19.20;50.30
49679;DHT22;35570;48.218;16.326;2023-04-16T12:54:47;18.80;51.10
49679;DHT22;35570;48.218;16.326;2023-04-16T12:57:13;18.30;53.20
49679;DHT22;35570;48.218;16.326;2023-04-16T12:59:39;17.80;54.10
49679;DHT22;35570;48.218;16.326;2023-04-16T13:02:05;17.30;55.30
49679;DHT22;35570;48.218;16.326;2023-04-16T13:04:31;16.70;56.10
49679;DHT22;35570;48.218;16.326;2023-04-16T13:06:57;16.30;56.60
49679;DHT22;35570;48.218;16.326;2023-04-16T13:09:22;15.90;57.10
49679;DHT22;35570;48.218;16.326;2023-04-16T13:11:49;15.50;57.30
49679;DHT22;35570;48.218;16.326;2023-04-16T13:14:14;15.30;60.20
49679;DHT22;35570;48.218;16.326;2023-04-16T13:16:40;15.10;59.40
49679;DHT22;35570;48.218;16.326;2023-04-16T13:19:06;15.00;60.90
49679;DHT22;35570;48.218;16.326;2023-04-16T13:21:32;14.90;61.40
49679;DHT22;35570;48.218;16.326;2023-04-16T13:23:58;14.80;61.60
49679;DHT22;35570;48.218;16.326;2023-04-16T13:26:24;14.70;63.30
49679;DHT22;35570;48.218;16.326;2023-04-16T13:28:50;14.80;62.00
49679;DHT22;35570;48.218;16.326;2023-04-16T13:31:19;14.70;62.10
49679;DHT22;35570;48.218;16.326;2023-04-16T13:33:46;14.70;61.10
49679;DHT22;35570;48.218;16.326;2023-04-16T13:36:12;14.80;62.50
49679;DHT22;35570;48.218;16.326;2023-04-16T13:38:38;14.90;61.30
49679;DHT22;35570;48.218;16.326;2023-04-16T13:41:04;14.90;61.80
49679;DHT22;35570;48.218;16.326;2023-04-16T13:43:33;14.90;60.70
49679;DHT22;35570;48.218;16.326;2023-04-16T13:46:01;14.80;61.30
49679;DHT22;35570;48.218;16.326;2023-04-16T13:48:27;14.80;62.00
49679;DHT22;35570;48.218;16.326;2023-04-16T13:50:53;14.90;60.80
49679;DHT22;35570;48.218;16.326;2023-04-16T13:53:19;14.90;60.80
49679;DHT22;35570;48.218;16.326;2023-04-16T13:55:45;14.90;59.80
49679;DHT22;35570;48.218;16.326;2023-04-16T13:58:10;14.90;59.40
49679;DHT22;35570;48.218;16.326;2023-04-16T14:00:36;14.80;59.10
49679;DHT22;35570;48.218;16.326;2023-04-16T14:03:02;14.90;60.00
49679;DHT22;35570;48.218;16.326;2023-04-16T14:05:31;14.90;61.30
49679;DHT22;35570;48.218;16.326;2023-04-16T14:07:56;15.00;60.70
49679;DHT22;35570;48.218;16.326;2023-04-16T14:10:22;15.00;61.90
49679;DHT22;35570;48.218;16.326;2023-04-16T14:12:48;14.90;61.60
49679;DHT22;35570;48.218;16.326;2023-04-16T14:15:13;14.90;60.90
49679;DHT22;35570;48.218;16.326;2023-04-16T14:17:42;14.80;61.10
49679;DHT22;35570;48.218;16.326;2023-04-16T14:20:09;14.70;61.90
49679;DHT22;35570;48.218;16.326;2023-04-16T14:22:36;14.70;62.00
49679;DHT22;35570;48.218;16.326;2023-04-16T14:25:01;14.60;62.20
49679;DHT22;35570;48.218;16.326;2023-04-16T14:27:27;14.50;63.00
49679;DHT22;35570;48.218;16.326;2023-04-16T14:29:53;14.50;64.20
49679;DHT22;35570;48.218;16.326;2023-04-16T14:32:19;14.40;64.10
49679;DHT22;35570;48.218;16.326;2023-04-16T14:34:45;14.30;65.50
49679;DHT22;35570;48.218;16.326;2023-04-16T14:37:11;14.20;65.70
49679;DHT22;35570;48.218;16.326;2023-04-16T14:39:36;14.00;67.20
49679;DHT22;35570;48.218;16.326;2023-04-16T14:42:04;13.80;68.10
49679;DHT22;35570;48.218;16.326;2023-04-16T14:44:31;13.70;68.10
49679;DHT22;35570;48.218;16.326;2023-04-16T14:46:56;13.60;68.50
49679;DHT22;35570;48.218;16.326;2023-04-16T14:49:22;13.60;70.00
49679;DHT22;35570;48.218;16.326;2023-04-16T14:51:48;13.50;70.30
49679;DHT22;35570;48.218;16.326;2023-04-16T14:54:14;13.60;70.30
49679;DHT22;35570;48.218;16.326;2023-04-16T14:56:40;13.70;70.60
49679;DHT22;35570;48.218;16.326;2023-04-16T14:59:06;13.70;69.80
49679;DHT22;35570;48.218;16.326;2023-04-16T15:01:32;13.70;70.30
49679;DHT22;35570;48.218;16.326;2023-04-16T15:03:58;13.70;70.00
49679;DHT22;35570;48.218;16.326;2023-04-16T15:06:24;13.70;70.00
49679;DHT22;35570;48.218;16.326;2023-04-16T15:08:51;13.60;70.50
49679;DHT22;35570;48.218;16.326;2023-04-16T15:11:16;13.60;70.90
49679;DHT22;35570;48.218;16.326;2023-04-16T15:13:42;13.50;71.20
49679;DHT22;35570;48.218;16.326;2023-04-16T15:16:08;13.40;71.00
49679;DHT22;35570;48.218;16.326;2023-04-16T15:18:34;13.30;71.50
49679;DHT22;35570;48.218;16.326;2023-04-16T15:21:00;13.30;71.60
49679;DHT22;35570;48.218;16.326;2023-04-16T15:23:25;13.20;71.50
49679;DHT22;35570;48.218;16.326;2023-04-16T15:25:51;13.20;72.20
49679;DHT22;35570;48.218;16.326;2023-04-16T15:28:17;13.20;73.20
49679;DHT22;35570;48.218;16.326;2023-04-16T15:30:42;13.20;73.60
49679;DHT22;35570;48.218;16.326;2023-04-16T15:33:10;13.20;72.90
49679;DHT22;35570;48.218;16.326;2023-04-16T15:35:36;13.20;71.70